sensor_id;sensor_type;location;lat;lon;timestamp;P1;durP1;ratioP1;P2;durP2;ratioP2
75061;SDS011;63641;46.526;24.612;2022-10-20T00:02:14;135.30;;;129.23;;
75061;SDS011;63641;46.526;24.612;2022-10-20T00:04:41;132.55;;;126.40;;
75061;SDS011;63641;46.526;24.612;2022-10-20T00:07:07;163.48;;;155.90;;
75061;SDS011;63641;46.526;24.612;2022-10-20T00:09:34;128.27;;;122.57;;
75061;SDS011;63641;46.526;24.612;2022-10-20T00:12:01;127.05;;;121.10;;
75061;SDS011;63641;46.526;24.612;2022-10-20T00:14:27;118.40;;;112.93;;
75061;SDS011;63641;46.526;24.612;2022-10-20T00:16:54;126.00;;;120.22;;
75061;SDS011;63641;46.526;24.612;2022-10-20T00:19:21;152.90;;;145.18;;
75061;SDS011;63641;46.526;24.612;2022-10-20T00:21:48;134.05;;;127.70;;
75061;SDS011;63641;46.526;24.612;2022-10-20T00:24:15;105.90;;;100.80;;
75061;SDS011;63641;46.526;24.612;2022-10-20T00:26:42;136.45;;;130.05;;
75061;SDS011;63641;46.526;24.612;2022-10-20T00:29:08;128.82;;;122.80;;
75061;SDS011;63641;46.526;24.612;2022-10-20T00:31:35;137.50;;;130.98;;
75061;SDS011;63641;46.526;24.612;2022-10-20T00:34:02;133.63;;;127.65;;
75061;SDS011;63641;46.526;24.612;2022-10-20T00:36:29;140.55;;;134.02;;
75061;SDS011;63641;46.526;24.612;2022-10-20T00:39:00;94.38;;;89.78;;
75061;SDS011;63641;46.526;24.612;2022-10-20T00:41:28;135.48;;;129.25;;
75061;SDS011;63641;46.526;24.612;2022-10-20T00:44:43;130.52;;;124.00;;
75061;SDS011;63641;46.526;24.612;2022-10-20T00:47:14;104.63;;;99.40;;
75061;SDS011;63641;46.526;24.612;2022-10-20T00:49:45;111.97;;;106.20;;
75061;SDS011;63641;46.526;24.612;2022-10-20T00:52:13;129.10;;;123.10;;
75061;SDS011;63641;46.526;24.612;2022-10-20T00:54:41;122.75;;;117.00;;
75061;SDS011;63641;46.526;24.612;2022-10-20T00:57:07;143.50;;;136.32;;
75061;SDS011;63641;46.526;24.612;2022-10-20T00:59:34;123.60;;;117.78;;
75061;SDS011;63641;46.526;24.612;2022-10-20T01:07:50;87.30;;;82.70;;
75061;SDS011;63641;46.526;24.612;2022-10-20T01:10:17;89.18;;;84.50;;
75061;SDS011;63641;46.526;24.612;2022-10-20T01:12:51;94.90;;;90.05;;
75061;SDS011;63641;46.526;24.612;2022-10-20T01:15:27;92.10;;;87.40;;
75061;SDS011;63641;46.526;24.612;2022-10-20T01:31:39;119.88;;;113.68;;
75061;SDS011;63641;46.526;24.612;2022-10-20T01:37:16;201.35;;;189.25;;
75061;SDS011;63641;46.526;24.612;2022-10-20T01:42:51;111.78;;;106.30;;
75061;SDS011;63641;46.526;24.612;2022-10-20T01:45:20;122.15;;;115.78;;
75061;SDS011;63641;46.526;24.612;2022-10-20T01:47:50;109.10;;;103.80;;
75061;SDS011;63641;46.526;24.612;2022-10-20T01:50:19;119.70;;;114.03;;
75061;SDS011;63641;46.526;24.612;2022-10-20T01:52:47;106.78;;;101.22;;
75061;SDS011;63641;46.526;24.612;2022-10-20T01:55:15;116.10;;;110.68;;
75061;SDS011;63641;46.526;24.612;2022-10-20T01:57:44;125.45;;;119.57;;
75061;SDS011;63641;46.526;24.612;2022-10-20T02:00:21;136.55;;;129.52;;
75061;SDS011;63641;46.526;24.612;2022-10-20T02:02:59;170.27;;;160.85;;
75061;SDS011;63641;46.526;24.612;2022-10-20T02:11:34;116.97;;;111.30;;
75061;SDS011;63641;46.526;24.612;2022-10-20T02:14:06;113.78;;;108.53;;
75061;SDS011;63641;46.526;24.612;2022-10-20T02:16:44;132.35;;;124.90;;
75061;SDS011;63641;46.526;24.612;2022-10-20T02:19:15;179.20;;;168.70;;
75061;SDS011;63641;46.526;24.612;2022-10-20T02:21:46;108.30;;;103.13;;
75061;SDS011;63641;46.526;24.612;2022-10-20T02:24:14;114.78;;;109.47;;
75061;SDS011;63641;46.526;24.612;2022-10-20T02:26:43;110.38;;;105.07;;
75061;SDS011;63641;46.526;24.612;2022-10-20T02:29:14;109.05;;;103.93;;
75061;SDS011;63641;46.526;24.612;2022-10-20T02:31:45;110.38;;;105.25;;
75061;SDS011;63641;46.526;24.612;2022-10-20T02:34:12;112.78;;;107.13;;
75061;SDS011;63641;46.526;24.612;2022-10-20T02:36:41;105.50;;;100.22;;
75061;SDS011;63641;46.526;24.612;2022-10-20T02:39:09;120.82;;;115.25;;
75061;SDS011;63641;46.526;24.612;2022-10-20T02:41:36;104.53;;;99.50;;
75061;SDS011;63641;46.526;24.612;2022-10-20T02:44:03;100.18;;;95.05;;
75061;SDS011;63641;46.526;24.612;2022-10-20T02:46:30;109.43;;;104.18;;
75061;SDS011;63641;46.526;24.612;2022-10-20T02:48:57;101.82;;;96.70;;
75061;SDS011;63641;46.526;24.612;2022-10-20T02:51:23;91.55;;;86.93;;
75061;SDS011;63641;46.526;24.612;2022-10-20T02:53:50;137.68;;;130.98;;
75061;SDS011;63641;46.526;24.612;2022-10-20T02:56:19;121.82;;;115.95;;
75061;SDS011;63641;46.526;24.612;2022-10-20T02:58:51;108.10;;;102.55;;
75061;SDS011;63641;46.526;24.612;2022-10-20T03:01:18;185.18;;;176.20;;
75061;SDS011;63641;46.526;24.612;2022-10-20T03:03:45;178.45;;;170.20;;
75061;SDS011;63641;46.526;24.612;2022-10-20T03:06:13;186.38;;;177.38;;
75061;SDS011;63641;46.526;24.612;2022-10-20T03:08:41;141.70;;;135.13;;
75061;SDS011;63641;46.526;24.612;2022-10-20T03:11:09;127.72;;;121.53;;
75061;SDS011;63641;46.526;24.612;2022-10-20T03:13:35;161.90;;;154.27;;
75061;SDS011;63641;46.526;24.612;2022-10-20T03:16:02;120.22;;;114.70;;
75061;SDS011;63641;46.526;24.612;2022-10-20T03:18:29;100.60;;;95.72;;
75061;SDS011;63641;46.526;24.612;2022-10-20T03:20:55;114.53;;;108.95;;
75061;SDS011;63641;46.526;24.612;2022-10-20T03:23:22;123.10;;;117.07;;
75061;SDS011;63641;46.526;24.612;2022-10-20T03:25:49;115.53;;;109.78;;
75061;SDS011;63641;46.526;24.612;2022-10-20T03:28:16;112.90;;;106.88;;
75061;SDS011;63641;46.526;24.612;2022-10-20T03:30:42;97.97;;;92.97;;
75061;SDS011;63641;46.526;24.612;2022-10-20T03:33:11;133.98;;;127.15;;
75061;SDS011;63641;46.526;24.612;2022-10-20T03:35:38;174.10;;;165.13;;
75061;SDS011;63641;46.526;24.612;2022-10-20T03:38:05;191.48;;;181.82;;
75061;SDS011;63641;46.526;24.612;2022-10-20T03:40:31;222.32;;;210.90;;
75061;SDS011;63641;46.526;24.612;2022-10-20T03:42:58;261.52;;;247.82;;
75061;SDS011;63641;46.526;24.612;2022-10-20T03:45:25;353.63;;;328.73;;
75061;SDS011;63641;46.526;24.612;2022-10-20T03:47:51;312.38;;;295.63;;
75061;SDS011;63641;46.526;24.612;2022-10-20T03:50:18;323.45;;;305.52;;
75061;SDS011;63641;46.526;24.612;2022-10-20T03:52:46;254.88;;;241.85;;
75061;SDS011;63641;46.526;24.612;2022-10-20T03:55:14;255.52;;;242.05;;
75061;SDS011;63641;46.526;24.612;2022-10-20T03:57:41;258.00;;;245.00;;
75061;SDS011;63641;46.526;24.612;2022-10-20T04:00:08;248.63;;;235.93;;
75061;SDS011;63641;46.526;24.612;2022-10-20T04:02:37;335.33;;;316.60;;
75061;SDS011;63641;46.526;24.612;2022-10-20T04:05:07;245.73;;;233.45;;
75061;SDS011;63641;46.526;24.612;2022-10-20T04:07:36;265.63;;;252.10;;
75061;SDS011;63641;46.526;24.612;2022-10-20T04:10:03;253.75;;;240.95;;
75061;SDS011;63641;46.526;24.612;2022-10-20T04:12:30;257.27;;;244.20;;
75061;SDS011;63641;46.526;24.612;2022-10-20T04:14:56;257.90;;;245.02;;
75061;SDS011;63641;46.526;24.612;2022-10-20T04:17:23;262.85;;;249.60;;
75061;SDS011;63641;46.526;24.612;2022-10-20T04:19:50;265.77;;;251.77;;
75061;SDS011;63641;46.526;24.612;2022-10-20T04:22:16;261.15;;;248.05;;
75061;SDS011;63641;46.526;24.612;2022-10-20T04:24:43;283.20;;;268.60;;
75061;SDS011;63641;46.526;24.612;2022-10-20T04:27:09;279.40;;;265.02;;
75061;SDS011;63641;46.526;24.612;2022-10-20T04:29:36;263.33;;;250.13;;
75061;SDS011;63641;46.526;24.612;2022-10-20T04:32:03;272.10;;;258.25;;
75061;SDS011;63641;46.526;24.612;2022-10-20T04:34:30;258.40;;;245.45;;
75061;SDS011;63641;46.526;24.612;2022-10-20T04:36:56;285.48;;;271.02;;
75061;SDS011;63641;46.526;24.612;2022-10-20T04:39:23;265.15;;;251.82;;
75061;SDS011;63641;46.526;24.612;2022-10-20T04:41:50;291.02;;;275.63;;
75061;SDS011;63641;46.526;24.612;2022-10-20T04:44:17;212.85;;;201.95;;
75061;SDS011;63641;46.526;24.612;2022-10-20T04:46:43;282.85;;;267.65;;
75061;SDS011;63641;46.526;24.612;2022-10-20T04:49:10;298.23;;;282.10;;
75061;SDS011;63641;46.526;24.612;2022-10-20T04:51:37;307.88;;;291.58;;
75061;SDS011;63641;46.526;24.612;2022-10-20T04:54:03;289.10;;;273.83;;
75061;SDS011;63641;46.526;24.612;2022-10-20T04:56:35;285.95;;;270.50;;
75061;SDS011;63641;46.526;24.612;2022-10-20T04:59:02;313.10;;;296.45;;
75061;SDS011;63641;46.526;24.612;2022-10-20T05:01:32;296.80;;;280.65;;
75061;SDS011;63641;46.526;24.612;2022-10-20T05:03:59;319.08;;;302.15;;
75061;SDS011;63641;46.526;24.612;2022-10-20T05:06:29;298.00;;;281.73;;
75061;SDS011;63641;46.526;24.612;2022-10-20T05:08:58;476.40;;;446.92;;
75061;SDS011;63641;46.526;24.612;2022-10-20T05:11:27;330.75;;;311.60;;
75061;SDS011;63641;46.526;24.612;2022-10-20T05:13:55;339.38;;;320.20;;
75061;SDS011;63641;46.526;24.612;2022-10-20T05:16:22;461.55;;;433.02;;
75061;SDS011;63641;46.526;24.612;2022-10-20T05:18:49;404.05;;;380.20;;
75061;SDS011;63641;46.526;24.612;2022-10-20T05:21:20;472.50;;;443.63;;
75061;SDS011;63641;46.526;24.612;2022-10-20T05:23:48;423.13;;;398.08;;
75061;SDS011;63641;46.526;24.612;2022-10-20T05:26:21;318.37;;;301.20;;
75061;SDS011;63641;46.526;24.612;2022-10-20T05:28:49;346.77;;;327.02;;
75061;SDS011;63641;46.526;24.612;2022-10-20T05:31:18;317.45;;;299.77;;
75061;SDS011;63641;46.526;24.612;2022-10-20T05:33:51;373.73;;;351.90;;
75061;SDS011;63641;46.526;24.612;2022-10-20T05:36:21;546.22;;;511.33;;
75061;SDS011;63641;46.526;24.612;2022-10-20T05:38:52;388.45;;;365.52;;
75061;SDS011;63641;46.526;24.612;2022-10-20T05:41:24;397.15;;;373.77;;
75061;SDS011;63641;46.526;24.612;2022-10-20T05:43:54;505.35;;;473.73;;
75061;SDS011;63641;46.526;24.612;2022-10-20T05:46:26;439.88;;;413.35;;
75061;SDS011;63641;46.526;24.612;2022-10-20T05:48:57;381.63;;;359.27;;
75061;SDS011;63641;46.526;24.612;2022-10-20T05:51:25;517.85;;;485.40;;
75061;SDS011;63641;46.526;24.612;2022-10-20T05:53:54;573.13;;;535.90;;
75061;SDS011;63641;46.526;24.612;2022-10-20T05:56:22;485.27;;;455.42;;
75061;SDS011;63641;46.526;24.612;2022-10-20T05:58:50;535.42;;;501.25;;
75061;SDS011;63641;46.526;24.612;2022-10-20T06:01:18;625.95;;;585.25;;
75061;SDS011;63641;46.526;24.612;2022-10-20T06:03:49;616.40;;;576.58;;
75061;SDS011;63641;46.526;24.612;2022-10-20T06:06:18;625.00;;;584.45;;
75061;SDS011;63641;46.526;24.612;2022-10-20T06:08:46;621.40;;;582.08;;
75061;SDS011;63641;46.526;24.612;2022-10-20T06:11:14;574.53;;;537.28;;
75061;SDS011;63641;46.526;24.612;2022-10-20T06:13:41;440.60;;;413.20;;
75061;SDS011;63641;46.526;24.612;2022-10-20T06:16:10;503.20;;;471.60;;
75061;SDS011;63641;46.526;24.612;2022-10-20T06:18:39;409.13;;;384.20;;
75061;SDS011;63641;46.526;24.612;2022-10-20T06:21:10;425.13;;;400.05;;
75061;SDS011;63641;46.526;24.612;2022-10-20T06:23:38;339.67;;;320.20;;
75061;SDS011;63641;46.526;24.612;2022-10-20T06:26:06;393.95;;;370.80;;
75061;SDS011;63641;46.526;24.612;2022-10-20T06:28:35;296.88;;;280.55;;
75061;SDS011;63641;46.526;24.612;2022-10-20T06:31:10;391.05;;;367.90;;
75061;SDS011;63641;46.526;24.612;2022-10-20T06:33:41;368.08;;;347.08;;
75061;SDS011;63641;46.526;24.612;2022-10-20T06:36:09;362.35;;;342.00;;
75061;SDS011;63641;46.526;24.612;2022-10-20T06:38:37;352.17;;;331.58;;
75061;SDS011;63641;46.526;24.612;2022-10-20T06:41:06;352.05;;;331.75;;
75061;SDS011;63641;46.526;24.612;2022-10-20T06:43:34;292.40;;;276.90;;
75061;SDS011;63641;46.526;24.612;2022-10-20T06:46:02;343.88;;;324.23;;
75061;SDS011;63641;46.526;24.612;2022-10-20T06:48:31;383.13;;;361.15;;
75061;SDS011;63641;46.526;24.612;2022-10-20T06:51:00;274.20;;;259.20;;
75061;SDS011;63641;46.526;24.612;2022-10-20T06:53:31;282.50;;;267.23;;
75061;SDS011;63641;46.526;24.612;2022-10-20T06:56:04;212.65;;;201.52;;
75061;SDS011;63641;46.526;24.612;2022-10-20T06:58:33;239.07;;;227.45;;
75061;SDS011;63641;46.526;24.612;2022-10-20T07:01:02;275.10;;;260.58;;
75061;SDS011;63641;46.526;24.612;2022-10-20T07:03:37;372.60;;;350.95;;
75061;SDS011;63641;46.526;24.612;2022-10-20T07:06:05;262.50;;;248.85;;
75061;SDS011;63641;46.526;24.612;2022-10-20T07:08:34;230.07;;;218.13;;
75061;SDS011;63641;46.526;24.612;2022-10-20T07:11:05;247.95;;;235.10;;
75061;SDS011;63641;46.526;24.612;2022-10-20T07:13:34;208.30;;;197.55;;
75061;SDS011;63641;46.526;24.612;2022-10-20T07:16:03;196.18;;;186.60;;
75061;SDS011;63641;46.526;24.612;2022-10-20T07:18:32;159.60;;;152.05;;
75061;SDS011;63641;46.526;24.612;2022-10-20T07:20:59;146.77;;;139.85;;
75061;SDS011;63641;46.526;24.612;2022-10-20T07:23:28;161.57;;;153.70;;
75061;SDS011;63641;46.526;24.612;2022-10-20T07:26:03;115.90;;;110.47;;
75061;SDS011;63641;46.526;24.612;2022-10-20T07:28:48;119.80;;;114.50;;
75061;SDS011;63641;46.526;24.612;2022-10-20T07:31:25;158.60;;;150.88;;
75061;SDS011;63641;46.526;24.612;2022-10-20T07:33:57;142.68;;;136.15;;
75061;SDS011;63641;46.526;24.612;2022-10-20T07:36:45;127.13;;;121.15;;
75061;SDS011;63641;46.526;24.612;2022-10-20T07:39:12;154.98;;;146.77;;
75061;SDS011;63641;46.526;24.612;2022-10-20T07:41:39;153.98;;;146.73;;
75061;SDS011;63641;46.526;24.612;2022-10-20T07:44:09;146.48;;;139.13;;
75061;SDS011;63641;46.526;24.612;2022-10-20T07:46:36;129.90;;;123.55;;
75061;SDS011;63641;46.526;24.612;2022-10-20T07:49:03;121.50;;;116.10;;
75061;SDS011;63641;46.526;24.612;2022-10-20T07:51:50;116.18;;;110.25;;
75061;SDS011;63641;46.526;24.612;2022-10-20T07:54:18;116.18;;;110.45;;
75061;SDS011;63641;46.526;24.612;2022-10-20T07:56:44;117.93;;;112.70;;
75061;SDS011;63641;46.526;24.612;2022-10-20T07:59:12;115.85;;;110.60;;
75061;SDS011;63641;46.526;24.612;2022-10-20T08:01:40;114.90;;;109.85;;
75061;SDS011;63641;46.526;24.612;2022-10-20T08:04:08;107.50;;;102.43;;
75061;SDS011;63641;46.526;24.612;2022-10-20T08:06:35;108.60;;;103.63;;
75061;SDS011;63641;46.526;24.612;2022-10-20T08:09:04;97.57;;;93.18;;
75061;SDS011;63641;46.526;24.612;2022-10-20T08:11:31;110.63;;;105.78;;
75061;SDS011;63641;46.526;24.612;2022-10-20T08:13:58;123.15;;;117.53;;
75061;SDS011;63641;46.526;24.612;2022-10-20T08:16:25;102.32;;;97.63;;
75061;SDS011;63641;46.526;24.612;2022-10-20T08:19:03;106.80;;;101.80;;
75061;SDS011;63641;46.526;24.612;2022-10-20T08:21:55;108.50;;;103.72;;
75061;SDS011;63641;46.526;24.612;2022-10-20T08:24:22;109.65;;;105.00;;
75061;SDS011;63641;46.526;24.612;2022-10-20T08:26:49;100.32;;;95.63;;
75061;SDS011;63641;46.526;24.612;2022-10-20T08:29:16;138.85;;;132.80;;
75061;SDS011;63641;46.526;24.612;2022-10-20T08:31:43;139.40;;;133.25;;
75061;SDS011;63641;46.526;24.612;2022-10-20T08:34:09;127.30;;;122.10;;
75061;SDS011;63641;46.526;24.612;2022-10-20T08:36:36;132.23;;;126.68;;
75061;SDS011;63641;46.526;24.612;2022-10-20T08:39:03;115.50;;;110.72;;
75061;SDS011;63641;46.526;24.612;2022-10-20T08:41:38;132.23;;;126.80;;
75061;SDS011;63641;46.526;24.612;2022-10-20T08:44:29;136.65;;;130.80;;
75061;SDS011;63641;46.526;24.612;2022-10-20T08:47:00;140.38;;;134.63;;
75061;SDS011;63641;46.526;24.612;2022-10-20T08:49:29;138.65;;;132.98;;
75061;SDS011;63641;46.526;24.612;2022-10-20T08:51:58;70.32;;;67.10;;
75061;SDS011;63641;46.526;24.612;2022-10-20T08:54:26;81.18;;;77.20;;
75061;SDS011;63641;46.526;24.612;2022-10-20T08:56:53;128.05;;;122.25;;
75061;SDS011;63641;46.526;24.612;2022-10-20T08:59:27;98.15;;;93.47;;
75061;SDS011;63641;46.526;24.612;2022-10-20T09:01:58;143.63;;;136.77;;
75061;SDS011;63641;46.526;24.612;2022-10-20T09:04:36;94.90;;;90.78;;
75061;SDS011;63641;46.526;24.612;2022-10-20T09:13:05;96.95;;;92.72;;
75061;SDS011;63641;46.526;24.612;2022-10-20T09:15:42;123.60;;;116.85;;
75061;SDS011;63641;46.526;24.612;2022-10-20T09:18:10;80.55;;;76.50;;
75061;SDS011;63641;46.526;24.612;2022-10-20T09:21:00;74.18;;;70.90;;
75061;SDS011;63641;46.526;24.612;2022-10-20T09:23:39;58.17;;;55.40;;
75061;SDS011;63641;46.526;24.612;2022-10-20T09:26:16;95.53;;;91.55;;
75061;SDS011;63641;46.526;24.612;2022-10-20T09:29:11;80.13;;;76.30;;
75061;SDS011;63641;46.526;24.612;2022-10-20T09:34:21;99.55;;;95.25;;
75061;SDS011;63641;46.526;24.612;2022-10-20T09:36:51;85.88;;;82.22;;
75061;SDS011;63641;46.526;24.612;2022-10-20T09:39:27;129.00;;;123.55;;
75061;SDS011;63641;46.526;24.612;2022-10-20T09:41:59;129.93;;;124.60;;
75061;SDS011;63641;46.526;24.612;2022-10-20T09:44:31;104.78;;;100.25;;
75061;SDS011;63641;46.526;24.612;2022-10-20T09:47:00;109.57;;;105.00;;
75061;SDS011;63641;46.526;24.612;2022-10-20T09:49:31;111.93;;;107.18;;
75061;SDS011;63641;46.526;24.612;2022-10-20T09:52:01;62.20;;;59.17;;
75061;SDS011;63641;46.526;24.612;2022-10-20T09:54:38;97.80;;;92.55;;
75061;SDS011;63641;46.526;24.612;2022-10-20T09:57:06;76.85;;;73.35;;
75061;SDS011;63641;46.526;24.612;2022-10-20T09:59:43;90.13;;;86.20;;
75061;SDS011;63641;46.526;24.612;2022-10-20T10:04:41;73.90;;;70.45;;
75061;SDS011;63641;46.526;24.612;2022-10-20T10:09:58;59.90;;;56.83;;
75061;SDS011;63641;46.526;24.612;2022-10-20T10:12:33;70.72;;;67.15;;
75061;SDS011;63641;46.526;24.612;2022-10-20T10:15:03;94.32;;;89.82;;
75061;SDS011;63641;46.526;24.612;2022-10-20T10:22:39;76.78;;;72.18;;
75061;SDS011;63641;46.526;24.612;2022-10-20T10:25:06;84.93;;;80.47;;
75061;SDS011;63641;46.526;24.612;2022-10-20T10:27:56;51.65;;;49.17;;
75061;SDS011;63641;46.526;24.612;2022-10-20T10:30:27;108.65;;;102.30;;
75061;SDS011;63641;46.526;24.612;2022-10-20T10:32:57;208.18;;;193.75;;
75061;SDS011;63641;46.526;24.612;2022-10-20T10:38:02;57.75;;;54.22;;
75061;SDS011;63641;46.526;24.612;2022-10-20T10:45:43;43.80;;;41.45;;
75061;SDS011;63641;46.526;24.612;2022-10-20T10:50:52;87.75;;;83.47;;
75061;SDS011;63641;46.526;24.612;2022-10-20T10:59:27;53.28;;;50.30;;
75061;SDS011;63641;46.526;24.612;2022-10-20T11:04:47;95.53;;;90.55;;
75061;SDS011;63641;46.526;24.612;2022-10-20T11:07:48;53.20;;;50.80;;
75061;SDS011;63641;46.526;24.612;2022-10-20T11:13:31;64.65;;;61.72;;
75061;SDS011;63641;46.526;24.612;2022-10-20T11:16:14;79.78;;;75.90;;
75061;SDS011;63641;46.526;24.612;2022-10-20T11:24:52;44.17;;;42.05;;
75061;SDS011;63641;46.526;24.612;2022-10-20T11:27:18;50.13;;;47.65;;
75061;SDS011;63641;46.526;24.612;2022-10-20T11:32:27;104.05;;;98.72;;
75061;SDS011;63641;46.526;24.612;2022-10-20T11:35:21;89.57;;;85.28;;
75061;SDS011;63641;46.526;24.612;2022-10-20T11:38:19;116.07;;;110.43;;
75061;SDS011;63641;46.526;24.612;2022-10-20T11:41:02;44.85;;;42.63;;
75061;SDS011;63641;46.526;24.612;2022-10-20T11:43:47;45.75;;;43.72;;
75061;SDS011;63641;46.526;24.612;2022-10-20T11:46:19;54.67;;;51.88;;
75061;SDS011;63641;46.526;24.612;2022-10-20T11:48:55;53.17;;;50.75;;
75061;SDS011;63641;46.526;24.612;2022-10-20T12:16:37;65.18;;;62.30;;
75061;SDS011;63641;46.526;24.612;2022-10-20T12:19:21;153.98;;;146.30;;
75061;SDS011;63641;46.526;24.612;2022-10-20T12:21:58;154.88;;;146.70;;
75061;SDS011;63641;46.526;24.612;2022-10-20T12:27:20;56.78;;;53.92;;
75061;SDS011;63641;46.526;24.612;2022-10-20T12:29:54;56.95;;;54.17;;
75061;SDS011;63641;46.526;24.612;2022-10-20T12:34:54;164.43;;;152.98;;
75061;SDS011;63641;46.526;24.612;2022-10-20T12:37:29;89.28;;;85.03;;
75061;SDS011;63641;46.526;24.612;2022-10-20T12:42:32;108.35;;;103.45;;
75061;SDS011;63641;46.526;24.612;2022-10-20T12:47:54;141.73;;;134.73;;
75061;SDS011;63641;46.526;24.612;2022-10-20T12:50:43;192.90;;;183.25;;
75061;SDS011;63641;46.526;24.612;2022-10-20T12:53:22;58.38;;;55.65;;
75061;SDS011;63641;46.526;24.612;2022-10-20T12:56:00;153.68;;;144.05;;
75061;SDS011;63641;46.526;24.612;2022-10-20T12:58:34;76.18;;;72.32;;
75061;SDS011;63641;46.526;24.612;2022-10-20T13:01:04;72.30;;;69.00;;
75061;SDS011;63641;46.526;24.612;2022-10-20T13:03:38;128.05;;;121.80;;
75061;SDS011;63641;46.526;24.612;2022-10-20T13:14:15;80.63;;;76.97;;
75061;SDS011;63641;46.526;24.612;2022-10-20T13:17:33;153.80;;;146.27;;
75061;SDS011;63641;46.526;24.612;2022-10-20T13:19:52;98.63;;;94.13;;
75061;SDS011;63641;46.526;24.612;2022-10-20T13:22:31;131.48;;;125.20;;
75061;SDS011;63641;46.526;24.612;2022-10-20T13:25:04;118.78;;;112.65;;
75061;SDS011;63641;46.526;24.612;2022-10-20T13:27:38;153.35;;;145.35;;
75061;SDS011;63641;46.526;24.612;2022-10-20T13:30:06;114.10;;;108.35;;
75061;SDS011;63641;46.526;24.612;2022-10-20T13:38:46;157.70;;;149.30;;
75061;SDS011;63641;46.526;24.612;2022-10-20T13:46:58;127.95;;;121.82;;
75061;SDS011;63641;46.526;24.612;2022-10-20T13:52:42;103.07;;;97.78;;
75061;SDS011;63641;46.526;24.612;2022-10-20T13:55:16;143.32;;;136.40;;
75061;SDS011;63641;46.526;24.612;2022-10-20T13:57:47;163.98;;;155.20;;
75061;SDS011;63641;46.526;24.612;2022-10-20T14:00:22;206.85;;;196.55;;
75061;SDS011;63641;46.526;24.612;2022-10-20T14:03:04;141.43;;;134.30;;
75061;SDS011;63641;46.526;24.612;2022-10-20T14:05:41;100.10;;;95.38;;
75061;SDS011;63641;46.526;24.612;2022-10-20T14:08:09;121.72;;;115.57;;
75061;SDS011;63641;46.526;24.612;2022-10-20T14:13:13;125.28;;;119.22;;
75061;SDS011;63641;46.526;24.612;2022-10-20T14:15:46;133.60;;;126.00;;
75061;SDS011;63641;46.526;24.612;2022-10-20T14:20:58;228.23;;;214.38;;
75061;SDS011;63641;46.526;24.612;2022-10-20T14:26:00;262.00;;;248.38;;
75061;SDS011;63641;46.526;24.612;2022-10-20T14:28:32;181.90;;;172.00;;
75061;SDS011;63641;46.526;24.612;2022-10-20T14:31:00;200.88;;;189.98;;
75061;SDS011;63641;46.526;24.612;2022-10-20T14:33:28;154.73;;;146.60;;
75061;SDS011;63641;46.526;24.612;2022-10-20T14:35:58;164.10;;;155.63;;
75061;SDS011;63641;46.526;24.612;2022-10-20T14:38:29;194.38;;;184.25;;
75061;SDS011;63641;46.526;24.612;2022-10-20T14:41:00;204.10;;;193.27;;
75061;SDS011;63641;46.526;24.612;2022-10-20T14:43:38;188.98;;;178.77;;
75061;SDS011;63641;46.526;24.612;2022-10-20T14:46:09;171.02;;;161.85;;
75061;SDS011;63641;46.526;24.612;2022-10-20T14:48:44;197.65;;;187.20;;
75061;SDS011;63641;46.526;24.612;2022-10-20T15:02:46;236.52;;;223.43;;
75061;SDS011;63641;46.526;24.612;2022-10-20T15:10:43;268.63;;;253.60;;
75061;SDS011;63641;46.526;24.612;2022-10-20T15:13:21;243.00;;;229.52;;
75061;SDS011;63641;46.526;24.612;2022-10-20T15:15:58;291.70;;;275.30;;
75061;SDS011;63641;46.526;24.612;2022-10-20T15:18:27;282.00;;;266.13;;
75061;SDS011;63641;46.526;24.612;2022-10-20T15:20:54;303.60;;;286.35;;
75061;SDS011;63641;46.526;24.612;2022-10-20T15:23:25;296.00;;;279.42;;
75061;SDS011;63641;46.526;24.612;2022-10-20T15:28:52;364.50;;;343.83;;
75061;SDS011;63641;46.526;24.612;2022-10-20T15:31:23;354.23;;;334.10;;
75061;SDS011;63641;46.526;24.612;2022-10-20T15:33:55;361.83;;;341.15;;
75061;SDS011;63641;46.526;24.612;2022-10-20T15:36:24;364.67;;;343.90;;
75061;SDS011;63641;46.526;24.612;2022-10-20T15:38:54;344.75;;;325.60;;
75061;SDS011;63641;46.526;24.612;2022-10-20T15:41:31;343.42;;;323.73;;
75061;SDS011;63641;46.526;24.612;2022-10-20T15:44:09;386.55;;;364.52;;
75061;SDS011;63641;46.526;24.612;2022-10-20T15:46:40;419.77;;;395.45;;
75061;SDS011;63641;46.526;24.612;2022-10-20T15:49:08;407.38;;;383.98;;
75061;SDS011;63641;46.526;24.612;2022-10-20T15:51:35;434.48;;;409.27;;
75061;SDS011;63641;46.526;24.612;2022-10-20T15:54:03;467.83;;;440.13;;
75061;SDS011;63641;46.526;24.612;2022-10-20T15:56:31;484.35;;;454.63;;
75061;SDS011;63641;46.526;24.612;2022-10-20T15:58:58;467.98;;;439.27;;
75061;SDS011;63641;46.526;24.612;2022-10-20T16:01:25;453.48;;;425.88;;
75061;SDS011;63641;46.526;24.612;2022-10-20T16:03:53;468.80;;;440.25;;
75061;SDS011;63641;46.526;24.612;2022-10-20T16:06:21;466.23;;;437.48;;
75061;SDS011;63641;46.526;24.612;2022-10-20T16:08:48;458.05;;;429.63;;
75061;SDS011;63641;46.526;24.612;2022-10-20T16:11:18;452.95;;;424.65;;
75061;SDS011;63641;46.526;24.612;2022-10-20T16:13:46;479.75;;;449.42;;
75061;SDS011;63641;46.526;24.612;2022-10-20T16:16:14;505.58;;;473.77;;
75061;SDS011;63641;46.526;24.612;2022-10-20T16:18:43;517.50;;;483.85;;
75061;SDS011;63641;46.526;24.612;2022-10-20T16:21:10;439.00;;;411.73;;
75061;SDS011;63641;46.526;24.612;2022-10-20T16:23:38;488.80;;;456.98;;
75061;SDS011;63641;46.526;24.612;2022-10-20T16:26:10;495.58;;;464.10;;
75061;SDS011;63641;46.526;24.612;2022-10-20T16:28:38;488.75;;;458.08;;
75061;SDS011;63641;46.526;24.612;2022-10-20T16:31:09;495.63;;;464.55;;
75061;SDS011;63641;46.526;24.612;2022-10-20T16:33:39;479.35;;;448.67;;
75061;SDS011;63641;46.526;24.612;2022-10-20T16:36:07;466.73;;;437.27;;
75061;SDS011;63641;46.526;24.612;2022-10-20T16:38:35;491.27;;;460.13;;
75061;SDS011;63641;46.526;24.612;2022-10-20T16:41:07;506.38;;;474.10;;
75061;SDS011;63641;46.526;24.612;2022-10-20T16:43:36;482.25;;;452.10;;
75061;SDS011;63641;46.526;24.612;2022-10-20T16:46:04;491.35;;;459.48;;
75061;SDS011;63641;46.526;24.612;2022-10-20T16:48:33;482.17;;;452.23;;
75061;SDS011;63641;46.526;24.612;2022-10-20T16:51:03;459.05;;;430.90;;
75061;SDS011;63641;46.526;24.612;2022-10-20T16:53:32;466.92;;;437.88;;
75061;SDS011;63641;46.526;24.612;2022-10-20T16:55:59;481.45;;;451.25;;
75061;SDS011;63641;46.526;24.612;2022-10-20T16:58:26;470.67;;;441.58;;